createdAt,value
2019-06-07T00:01:53.314Z,74.75
2019-06-07T00:06:55.158Z,74.75
2019-06-07T00:11:57.057Z,75.11
2019-06-07T00:17:00.200Z,74.70
2019-06-07T00:22:30.051Z,73.55
2019-06-07T00:27:05.807Z,73.52
2019-06-07T00:32:09.153Z,75.00
2019-06-07T00:37:12.715Z,75.54
2019-06-07T00:42:18.549Z,75.02
2019-06-07T00:47:23.102Z,75.12
2019-06-07T00:53:11.513Z,75.32
2019-06-07T00:57:26.330Z,75.37
2019-06-07T01:02:31.370Z,74.67
2019-06-07T01:07:31.903Z,76.39
2019-06-07T01:12:33.778Z,76.30
2019-06-07T01:17:50.103Z,75.86
2019-06-07T01:22:39.530Z,75.89
2019-06-07T01:27:41.345Z,76.60
2019-06-07T01:32:43.140Z,77.49
2019-06-07T01:37:44.978Z,77.87
2019-06-07T01:42:46.934Z,77.39
2019-06-07T01:47:48.794Z,77.42
2019-06-07T01:52:50.593Z,76.64
2019-06-07T01:57:52.439Z,76.31
2019-06-07T02:02:54.280Z,77.33
2019-06-07T02:07:56.099Z,76.80
2019-06-07T02:12:57.917Z,76.89
2019-06-07T02:17:59.762Z,77.76
2019-06-07T02:23:01.637Z,78.60
2019-06-07T02:28:26.596Z,78.37
2019-06-07T02:33:07.205Z,77.49
2019-06-07T02:38:09.017Z,77.54
2019-06-07T02:43:10.979Z,76.77
2019-06-07T02:48:12.832Z,75.83
2019-06-07T02:53:15.755Z,76.84
2019-06-07T02:58:17.617Z,78.51
2019-06-07T03:03:19.606Z,77.95
2019-06-07T03:08:21.482Z,77.67
2019-06-07T03:13:23.577Z,77.32
2019-06-07T03:18:29.087Z,77.44
2019-06-07T03:23:32.419Z,78.48
2019-06-07T03:28:37.478Z,76.75
2019-06-07T03:33:42.937Z,77.14
2019-06-07T03:38:42.515Z,77.53
2019-06-07T03:43:44.512Z,78.93
2019-06-07T03:48:46.433Z,79.69
2019-06-07T03:53:48.226Z,79.75
2019-06-07T03:58:50.718Z,79.39
2019-06-07T04:03:52.772Z,77.73
2019-06-07T04:08:54.628Z,78.76
2019-06-07T04:13:56.522Z,77.78
2019-06-07T04:18:58.366Z,79.82
2019-06-07T04:24:00.146Z,80.76
2019-06-07T04:29:32.240Z,80.55
2019-06-07T04:34:05.739Z,80.17
2019-06-07T04:39:07.594Z,80.72
2019-06-07T04:44:10.841Z,81.75
2019-06-07T04:49:14.585Z,82.27
2019-06-07T04:54:16.449Z,80.82
2019-06-07T05:00:00.421Z,80.17
2019-06-07T05:04:22.164Z,79.25
2019-06-07T05:09:24.029Z,78.04
2019-06-07T05:14:25.911Z,78.18
2019-06-07T05:19:27.712Z,78.08
2019-06-07T05:24:30.720Z,78.39
2019-06-07T05:29:36.676Z,77.92
2019-06-07T05:34:39.375Z,77.10
2019-06-07T05:39:45.584Z,77.50
2019-06-07T05:44:45.890Z,75.19
2019-06-07T05:49:47.890Z,74.79
2019-06-07T05:54:49.689Z,75.83
2019-06-07T05:59:51.537Z,74.01
2019-06-07T06:04:53.377Z,73.32
2019-06-07T06:09:55.163Z,67.95
2019-06-07T06:14:57.015Z,71.19
2019-06-07T06:19:58.899Z,66.96
2019-06-07T06:25:30.644Z,67.42
2019-06-07T06:30:08.127Z,66.34
2019-06-07T06:35:10.355Z,64.00
2019-06-07T06:40:12.725Z,64.00
2019-06-07T06:45:15.049Z,62.53
2019-06-07T06:50:17.172Z,58.96
2019-06-07T06:55:19.087Z,62.83
2019-06-07T07:00:50.355Z,57.34
2019-06-07T07:05:50.835Z,62.37
2019-06-07T07:10:53.280Z,57.81
2019-06-07T07:15:57.893Z,54.51
2019-06-07T07:20:58.937Z,57.78
2019-06-07T07:26:00.733Z,55.00
2019-06-07T07:31:02.563Z,56.10
2019-06-07T07:36:18.931Z,54.54
2019-06-07T07:41:15.218Z,51.82
2019-06-07T07:46:29.082Z,53.07
2019-06-07T07:51:16.621Z,52.78
2019-06-07T07:56:18.564Z,49.54
2019-06-07T08:01:21.541Z,48.68
2019-06-07T08:06:23.409Z,47.88
2019-06-07T08:11:25.221Z,45.25
2019-06-07T08:16:27.018Z,46.78
2019-06-07T08:21:28.967Z,47.08
2019-06-07T08:26:30.925Z,47.91
2019-06-07T08:31:33.014Z,48.05
2019-06-07T08:36:41.902Z,46.71
2019-06-07T08:41:53.400Z,47.08
2019-06-07T08:46:42.705Z,44.53
2019-06-07T08:51:44.547Z,45.15
2019-06-07T08:56:46.400Z,45.50
2019-06-07T09:01:48.065Z,45.97
2019-06-07T09:11:54.709Z,44.91
2019-06-07T09:17:01.304Z,37.86
2019-06-07T09:22:07.075Z,35.01
2019-06-07T09:27:07.886Z,36.04
2019-06-07T09:32:12.123Z,39.43
2019-06-07T09:38:03.146Z,36.12
2019-06-07T09:42:18.306Z,33.27
2019-06-07T09:47:31.858Z,39.64
2019-06-07T09:52:23.679Z,36.00
2019-06-07T09:57:25.637Z,35.95
2019-06-07T10:02:27.339Z,39.76
2019-06-07T10:07:31.962Z,31.19
2019-06-07T10:12:32.979Z,35.04
2019-06-07T10:17:35.937Z,32.21
2019-06-07T10:22:37.704Z,33.36
2019-06-07T10:27:39.426Z,32.52
2019-06-07T10:32:41.444Z,33.12
2019-06-07T10:37:43.315Z,34.80
2019-06-07T10:42:45.120Z,33.83
2019-06-07T10:47:47.445Z,32.07
2019-06-07T10:52:49.497Z,33.09
2019-06-07T10:57:51.489Z,35.39
2019-06-07T11:02:55.321Z,34.20
2019-06-07T11:08:00.463Z,33.61
2019-06-07T11:13:00.943Z,32.08
2019-06-07T11:18:02.960Z,33.24
2019-06-07T11:23:06.687Z,34.37
2019-06-07T11:28:10.412Z,37.83
2019-06-07T11:33:15.756Z,34.71
2019-06-07T11:38:16.679Z,36.35
2019-06-07T11:43:19.039Z,34.72
2019-06-07T11:48:21.343Z,33.80
2019-06-07T11:53:23.378Z,33.67
2019-06-07T11:58:25.370Z,33.53
2019-06-07T12:03:27.351Z,31.81
2019-06-07T12:08:29.397Z,38.81
2019-06-07T12:13:31.755Z,36.51
2019-06-07T12:18:33.827Z,36.98
2019-06-07T12:23:35.792Z,34.20
2019-06-07T12:28:37.727Z,37.12
2019-06-07T12:33:39.612Z,31.80
2019-06-07T12:38:41.222Z,31.61
2019-06-07T12:43:43.088Z,33.20
2019-06-07T12:48:44.731Z,31.97
2019-06-07T12:53:47.870Z,35.76
2019-06-07T12:58:49.839Z,34.75
2019-06-07T13:03:51.743Z,33.25
2019-06-07T13:08:53.383Z,36.20
2019-06-07T13:13:55.357Z,36.89
2019-06-07T13:18:57.162Z,35.21
2019-06-07T13:23:58.811Z,38.21
2019-06-07T13:29:01.021Z,35.72
2019-06-07T13:34:03.048Z,35.72
2019-06-07T13:39:05.614Z,39.84
2019-06-07T13:44:07.477Z,39.73
2019-06-07T13:49:09.412Z,40.10
2019-06-07T13:54:11.106Z,41.06
2019-06-07T13:59:14.054Z,40.92
2019-06-07T14:04:15.747Z,41.64
2019-06-07T14:09:17.555Z,41.24
2019-06-07T14:14:20.161Z,41.66
2019-06-07T14:19:24.361Z,42.25
2019-06-07T14:24:27.062Z,42.41
2019-06-07T14:29:30.124Z,43.24
2019-06-07T14:34:32.676Z,43.36
2019-06-07T14:39:34.803Z,44.59
2019-06-07T14:44:36.687Z,42.76
2019-06-07T14:49:38.579Z,43.87
2019-06-07T14:54:40.343Z,43.93
2019-06-07T14:59:43.375Z,43.05
2019-06-07T15:04:45.559Z,43.00
2019-06-07T15:09:49.828Z,43.29
2019-06-07T15:14:52.716Z,39.41
2019-06-07T15:19:55.537Z,43.53
2019-06-07T15:24:57.722Z,42.93
2019-06-07T15:29:59.751Z,41.67
2019-06-07T15:35:02.929Z,43.91
2019-06-07T15:40:05.322Z,42.42
2019-06-07T15:45:11.280Z,44.73
2019-06-07T15:50:13.789Z,43.52
2019-06-07T15:55:17.535Z,45.02
2019-06-07T16:00:19.966Z,45.78
2019-06-07T16:05:22.213Z,47.75
2019-06-07T16:10:24.509Z,48.28
2019-06-07T16:15:26.517Z,46.78
2019-06-07T16:20:28.225Z,46.40
2019-06-07T16:25:30.133Z,46.48
2019-06-07T16:30:32.041Z,45.39
2019-06-07T16:35:34.879Z,45.69
2019-06-07T16:40:38.353Z,45.93
2019-06-07T16:45:40.816Z,46.46
2019-06-07T16:50:43.059Z,47.93
2019-06-07T16:55:47.235Z,48.42
2019-06-07T17:00:49.048Z,47.78
2019-06-07T17:05:50.917Z,51.03
2019-06-07T17:10:52.767Z,51.97
2019-06-07T17:15:54.710Z,54.17
2019-06-07T17:20:56.551Z,54.06
2019-06-07T17:25:58.434Z,54.24
2019-06-07T17:31:01.291Z,54.19
2019-06-07T17:36:03.368Z,54.61
2019-06-07T17:41:05.306Z,56.65
2019-06-07T17:46:07.244Z,55.53
2019-06-07T17:51:09.183Z,55.11
2019-06-07T17:56:11.102Z,55.54
2019-06-07T18:01:13.129Z,55.55
2019-06-07T18:06:16.085Z,55.79
2019-06-07T18:11:18.157Z,56.06
2019-06-07T18:16:20.150Z,56.44
2019-06-07T18:21:22.060Z,56.94
2019-06-07T18:26:23.998Z,57.08
2019-06-07T18:31:25.906Z,58.15
2019-06-07T18:36:27.943Z,58.47
2019-06-07T18:41:29.883Z,59.16
2019-06-07T18:46:31.952Z,60.22
2019-06-07T18:51:34.218Z,60.08
2019-06-07T18:56:36.770Z,61.14
2019-06-07T19:01:40.533Z,60.87
2019-06-07T19:06:43.660Z,61.38
2019-06-07T19:11:45.905Z,61.10
2019-06-07T19:16:49.335Z,61.48
2019-06-07T19:21:52.040Z,61.56
2019-06-07T19:26:54.484Z,61.92
2019-06-07T19:31:59.081Z,62.46
2019-06-07T19:37:02.125Z,63.09
2019-06-07T19:42:05.315Z,62.66
2019-06-07T19:47:07.323Z,62.87
2019-06-07T19:52:09.275Z,63.42
2019-06-07T19:57:12.684Z,63.99
2019-06-07T20:02:18.268Z,63.58
2019-06-07T20:07:21.247Z,64.41
2019-06-07T20:12:24.031Z,64.87
2019-06-07T20:17:26.326Z,64.67
2019-06-07T20:22:28.410Z,64.39
2019-06-07T20:27:30.416Z,63.98
2019-06-07T20:32:32.328Z,64.79
2019-06-07T20:37:34.395Z,64.79
2019-06-07T20:42:36.317Z,65.22
2019-06-07T20:47:39.237Z,65.71
2019-06-07T20:52:41.164Z,65.96
2019-06-07T20:57:43.120Z,65.78
2019-06-07T21:02:45.173Z,65.98
2019-06-07T21:07:47.141Z,65.79
2019-06-07T21:12:49.192Z,66.69
2019-06-07T21:17:51.082Z,66.44
2019-06-07T21:22:52.943Z,66.32
2019-06-07T21:27:54.877Z,67.58
2019-06-07T21:32:56.814Z,67.80
2019-06-07T21:37:58.706Z,66.58
2019-06-07T21:43:00.864Z,67.38
2019-06-07T21:48:05.212Z,67.71
2019-06-07T21:53:08.626Z,68.32
2019-06-07T21:58:11.240Z,67.53
2019-06-07T22:03:14.662Z,67.60
2019-06-07T22:08:16.646Z,67.66
2019-06-07T22:13:18.523Z,68.40
2019-06-07T22:18:20.486Z,68.72
2019-06-07T22:23:22.440Z,68.22
2019-06-07T22:28:24.468Z,68.35
2019-06-07T22:33:26.451Z,68.02
2019-06-07T22:38:28.296Z,68.59
2019-06-07T22:43:30.113Z,68.33
2019-06-07T22:48:31.979Z,68.02
2019-06-07T22:53:36.684Z,68.93
2019-06-07T22:58:38.666Z,68.65
2019-06-07T23:03:40.479Z,68.14
2019-06-07T23:08:42.360Z,69.31
2019-06-07T23:13:44.203Z,68.37
2019-06-07T23:18:46.095Z,69.57
2019-06-07T23:23:47.967Z,70.38
2019-06-07T23:28:49.769Z,68.85
2019-06-07T23:33:51.763Z,68.79
2019-06-07T23:38:53.794Z,69.43
2019-06-07T23:43:55.733Z,70.53
2019-06-07T23:48:57.961Z,71.41
2019-06-07T23:53:59.846Z,71.99
2019-06-07T23:59:01.824Z,70.86
